首页
METAR-TAF:

METAR-TAF

机场 :

丰沙尔, 馬德拉群岛, 葡萄牙

克里斯蒂亚诺·罗纳尔多机场

纬度: 32-41-52N, 经度: 016-46-28W, 海拔: 59米

当前天气观测

该预报发布于42分钟前的01:00 UTC
风速10节,风向北转东北,在北转西北东转东南之间变化
温度 16°C
湿度 68%
气压 1026 hPa
能见度10公里或以上
少量云层高于1600英尺

METAR: LPMA 190100Z 02010KT 340V110 9999 FEW016 16/10 Q1026

时间: 01:42 (01:42 UTC)

预报

该预报发布于2小时和42分钟前的23:00 UTC
预报有效从19日的 00点(UTC)到 19日的 24点(UTC)
风速13节,风向
能见度10公里或以上
散云层高于1500英尺
短暂存在
从 19日的 00点(UTC)到 19日的 12点(UTC)
风速18节,风向,有时为28节阵风
几率 30% :
短暂存在
从 19日的 00点(UTC)到 19日的 09点(UTC)
风速5节,风向多变

TAF: LPMA 182300Z 1900/1924 36013KT 9999 SCT015 TEMPO 1900/1912 36018G28KT PROB30 TEMPO 1900/1909 VRB05KT

超过4000个机场的气象观测和天气预报(METAR&TAF报告)。

可查询的气象台以黄色和红色小点在地图上表示。

将鼠标移到小点上方,可查看气象台名称。

然后点击查看天气观测和预报。

如需切换地图:点击带黑十字的绿色按钮放大地图;点击带横线的绿色按钮缩小地图;或者点击绿色箭头查看邻近地区的地图。


METAR-TAF: